sensor_id;sensor_type;location;lat;lon;timestamp;temperature;humidity
4910;DHT22;2470;49.868;8.660;2023-03-24T00:02:23;14.50;99.90
4910;DHT22;2470;49.868;8.660;2023-03-24T00:04:49;14.50;99.90
4910;DHT22;2470;49.868;8.660;2023-03-24T00:07:17;14.50;99.90
4910;DHT22;2470;49.868;8.660;2023-03-24T00:09:44;14.60;99.90
4910;DHT22;2470;49.868;8.660;2023-03-24T00:12:11;14.60;99.90
4910;DHT22;2470;49.868;8.660;2023-03-24T00:14:39;14.60;99.90
4910;DHT22;2470;49.868;8.660;2023-03-24T00:17:06;14.60;99.90
4910;DHT22;2470;49.868;8.660;2023-03-24T00:19:34;14.60;99.90
4910;DHT22;2470;49.868;8.660;2023-03-24T00:22:03;14.60;99.90
4910;DHT22;2470;49.868;8.660;2023-03-24T00:24:29;14.60;99.90
4910;DHT22;2470;49.868;8.660;2023-03-24T00:26:54;14.60;99.90
4910;DHT22;2470;49.868;8.660;2023-03-24T00:29:23;14.60;99.90
4910;DHT22;2470;49.868;8.660;2023-03-24T00:31:52;14.60;99.90
4910;DHT22;2470;49.868;8.660;2023-03-24T00:34:19;14.60;99.90
4910;DHT22;2470;49.868;8.660;2023-03-24T00:36:49;14.60;99.90
4910;DHT22;2470;49.868;8.660;2023-03-24T00:39:15;14.60;99.90
4910;DHT22;2470;49.868;8.660;2023-03-24T00:41:45;14.60;99.90
4910;DHT22;2470;49.868;8.660;2023-03-24T00:44:12;14.60;99.90
4910;DHT22;2470;49.868;8.660;2023-03-24T00:46:48;14.60;99.90
4910;DHT22;2470;49.868;8.660;2023-03-24T00:49:27;14.60;99.90
4910;DHT22;2470;49.868;8.660;2023-03-24T00:52:17;14.60;99.90
4910;DHT22;2470;49.868;8.660;2023-03-24T00:54:48;14.60;99.90
4910;DHT22;2470;49.868;8.660;2023-03-24T00:57:15;14.60;99.90
4910;DHT22;2470;49.868;8.660;2023-03-24T00:59:48;14.60;99.90
4910;DHT22;2470;49.868;8.660;2023-03-24T01:02:22;14.60;99.90
4910;DHT22;2470;49.868;8.660;2023-03-24T01:04:56;14.70;99.90
4910;DHT22;2470;49.868;8.660;2023-03-24T01:07:22;14.70;99.90
4910;DHT22;2470;49.868;8.660;2023-03-24T01:09:49;14.70;99.90
4910;DHT22;2470;49.868;8.660;2023-03-24T01:12:30;14.70;99.90
4910;DHT22;2470;49.868;8.660;2023-03-24T01:14:57;14.70;99.90
4910;DHT22;2470;49.868;8.660;2023-03-24T01:17:23;14.70;99.90
4910;DHT22;2470;49.868;8.660;2023-03-24T01:19:51;14.70;99.90
4910;DHT22;2470;49.868;8.660;2023-03-24T01:22:16;14.70;99.90
4910;DHT22;2470;49.868;8.660;2023-03-24T01:24:42;14.70;99.90
4910;DHT22;2470;49.868;8.660;2023-03-24T01:27:08;14.70;99.90
4910;DHT22;2470;49.868;8.660;2023-03-24T01:29:34;14.70;99.90
4910;DHT22;2470;49.868;8.660;2023-03-24T01:31:59;14.70;99.90
4910;DHT22;2470;49.868;8.660;2023-03-24T01:34:25;14.70;99.90
4910;DHT22;2470;49.868;8.660;2023-03-24T01:36:50;14.70;99.90
4910;DHT22;2470;49.868;8.660;2023-03-24T01:39:16;14.70;99.90
4910;DHT22;2470;49.868;8.660;2023-03-24T01:41:41;14.80;99.90
4910;DHT22;2470;49.868;8.660;2023-03-24T01:44:28;14.80;99.90
4910;DHT22;2470;49.868;8.660;2023-03-24T01:46:55;14.80;99.90
4910;DHT22;2470;49.868;8.660;2023-03-24T01:49:23;14.70;99.90
4910;DHT22;2470;49.868;8.660;2023-03-24T01:51:53;14.70;99.90
4910;DHT22;2470;49.868;8.660;2023-03-24T01:54:41;14.70;99.90
4910;DHT22;2470;49.868;8.660;2023-03-24T01:57:22;14.70;99.90
4910;DHT22;2470;49.868;8.660;2023-03-24T01:59:53;14.70;99.90
4910;DHT22;2470;49.868;8.660;2023-03-24T02:02:19;14.80;99.90
4910;DHT22;2470;49.868;8.660;2023-03-24T02:04:50;14.80;99.90
4910;DHT22;2470;49.868;8.660;2023-03-24T02:07:41;14.80;99.90
4910;DHT22;2470;49.868;8.660;2023-03-24T02:10:13;14.80;99.90
4910;DHT22;2470;49.868;8.660;2023-03-24T02:12:41;14.80;99.90
4910;DHT22;2470;49.868;8.660;2023-03-24T02:15:08;14.80;99.90
4910;DHT22;2470;49.868;8.660;2023-03-24T02:18:02;14.70;99.90
4910;DHT22;2470;49.868;8.660;2023-03-24T02:23:55;14.80;99.90
4910;DHT22;2470;49.868;8.660;2023-03-24T02:26:38;14.80;99.90
4910;DHT22;2470;49.868;8.660;2023-03-24T02:32:15;14.80;99.90
4910;DHT22;2470;49.868;8.660;2023-03-24T02:35:02;14.80;99.90
4910;DHT22;2470;49.868;8.660;2023-03-24T02:40:35;14.80;99.90
4910;DHT22;2470;49.868;8.660;2023-03-24T02:43:32;14.80;99.90
4910;DHT22;2470;49.868;8.660;2023-03-24T02:46:18;14.80;99.90
4910;DHT22;2470;49.868;8.660;2023-03-24T02:51:57;14.80;99.90
4910;DHT22;2470;49.868;8.660;2023-03-24T02:57:07;14.80;99.90
4910;DHT22;2470;49.868;8.660;2023-03-24T02:59:43;14.90;99.90
4910;DHT22;2470;49.868;8.660;2023-03-24T03:02:15;14.90;99.90
4910;DHT22;2470;49.868;8.660;2023-03-24T03:04:45;14.90;99.90
4910;DHT22;2470;49.868;8.660;2023-03-24T03:07:16;15.00;99.90
4910;DHT22;2470;49.868;8.660;2023-03-24T03:10:01;15.00;99.90
4910;DHT22;2470;49.868;8.660;2023-03-24T03:12:30;15.10;99.90
4910;DHT22;2470;49.868;8.660;2023-03-24T03:15:02;15.10;99.90
4910;DHT22;2470;49.868;8.660;2023-03-24T03:17:38;15.20;99.90
4910;DHT22;2470;49.868;8.660;2023-03-24T03:20:17;15.20;99.90
4910;DHT22;2470;49.868;8.660;2023-03-24T03:22:55;15.30;99.90
4910;DHT22;2470;49.868;8.660;2023-03-24T03:25:27;15.30;99.90
4910;DHT22;2470;49.868;8.660;2023-03-24T03:27:57;15.30;99.90
4910;DHT22;2470;49.868;8.660;2023-03-24T03:30:30;15.40;99.90
4910;DHT22;2470;49.868;8.660;2023-03-24T03:33:05;15.40;99.90
4910;DHT22;2470;49.868;8.660;2023-03-24T03:35:40;15.40;99.90
4910;DHT22;2470;49.868;8.660;2023-03-24T03:38:18;15.40;99.90
4910;DHT22;2470;49.868;8.660;2023-03-24T03:40:58;15.40;99.90
4910;DHT22;2470;49.868;8.660;2023-03-24T03:43:25;15.50;99.90
4910;DHT22;2470;49.868;8.660;2023-03-24T03:45:52;15.50;99.90
4910;DHT22;2470;49.868;8.660;2023-03-24T03:48:18;15.40;99.90
4910;DHT22;2470;49.868;8.660;2023-03-24T03:50:44;15.50;99.90
4910;DHT22;2470;49.868;8.660;2023-03-24T03:53:12;15.50;99.90
4910;DHT22;2470;49.868;8.660;2023-03-24T03:55:38;15.50;99.90
4910;DHT22;2470;49.868;8.660;2023-03-24T03:58:06;15.50;99.90
4910;DHT22;2470;49.868;8.660;2023-03-24T04:00:33;15.40;99.90
4910;DHT22;2470;49.868;8.660;2023-03-24T04:06:05;15.40;99.90
4910;DHT22;2470;49.868;8.660;2023-03-24T04:11:26;15.30;99.90
4910;DHT22;2470;49.868;8.660;2023-03-24T04:17:18;15.20;99.90
4910;DHT22;2470;49.868;8.660;2023-03-24T04:20:13;15.20;99.90
4910;DHT22;2470;49.868;8.660;2023-03-24T04:28:44;15.10;99.90
4910;DHT22;2470;49.868;8.660;2023-03-24T04:31:26;15.10;99.90
4910;DHT22;2470;49.868;8.660;2023-03-24T04:34:00;15.10;99.90
4910;DHT22;2470;49.868;8.660;2023-03-24T04:36:38;15.10;99.90
4910;DHT22;2470;49.868;8.660;2023-03-24T04:39:13;15.10;99.90
4910;DHT22;2470;49.868;8.660;2023-03-24T04:41:41;15.10;99.90
4910;DHT22;2470;49.868;8.660;2023-03-24T04:44:09;15.10;99.90
4910;DHT22;2470;49.868;8.660;2023-03-24T04:46:36;15.00;99.90
4910;DHT22;2470;49.868;8.660;2023-03-24T04:49:02;15.00;99.90
4910;DHT22;2470;49.868;8.660;2023-03-24T04:51:30;15.00;99.90
4910;DHT22;2470;49.868;8.660;2023-03-24T04:53:56;14.90;99.90
4910;DHT22;2470;49.868;8.660;2023-03-24T04:58:50;14.90;99.90
4910;DHT22;2470;49.868;8.660;2023-03-24T05:01:16;14.80;99.90
4910;DHT22;2470;49.868;8.660;2023-03-24T05:03:41;14.80;99.90
4910;DHT22;2470;49.868;8.660;2023-03-24T05:06:10;14.80;99.90
4910;DHT22;2470;49.868;8.660;2023-03-24T05:08:37;14.70;99.90
4910;DHT22;2470;49.868;8.660;2023-03-24T05:11:03;14.60;99.90
4910;DHT22;2470;49.868;8.660;2023-03-24T05:13:28;14.50;99.90
4910;DHT22;2470;49.868;8.660;2023-03-24T05:15:54;14.50;99.90
4910;DHT22;2470;49.868;8.660;2023-03-24T05:18:19;14.40;99.90
4910;DHT22;2470;49.868;8.660;2023-03-24T05:20:45;14.40;99.90
4910;DHT22;2470;49.868;8.660;2023-03-24T05:23:11;14.30;99.90
4910;DHT22;2470;49.868;8.660;2023-03-24T05:25:36;14.20;99.90
4910;DHT22;2470;49.868;8.660;2023-03-24T05:28:02;14.20;99.90
4910;DHT22;2470;49.868;8.660;2023-03-24T05:30:27;14.10;99.90
4910;DHT22;2470;49.868;8.660;2023-03-24T05:32:53;14.10;99.90
4910;DHT22;2470;49.868;8.660;2023-03-24T05:35:18;14.00;99.90
4910;DHT22;2470;49.868;8.660;2023-03-24T05:37:44;14.00;99.90
4910;DHT22;2470;49.868;8.660;2023-03-24T05:40:10;14.00;99.90
4910;DHT22;2470;49.868;8.660;2023-03-24T05:42:36;13.90;99.90
4910;DHT22;2470;49.868;8.660;2023-03-24T05:45:02;13.90;99.90
4910;DHT22;2470;49.868;8.660;2023-03-24T05:47:27;13.90;99.90
4910;DHT22;2470;49.868;8.660;2023-03-24T05:49:53;13.90;99.90
4910;DHT22;2470;49.868;8.660;2023-03-24T05:52:19;13.80;99.90
4910;DHT22;2470;49.868;8.660;2023-03-24T05:54:47;13.80;99.90
4910;DHT22;2470;49.868;8.660;2023-03-24T05:57:16;13.80;99.90
4910;DHT22;2470;49.868;8.660;2023-03-24T05:59:42;13.80;99.90
4910;DHT22;2470;49.868;8.660;2023-03-24T06:02:07;13.80;99.90
4910;DHT22;2470;49.868;8.660;2023-03-24T06:04:33;13.80;99.90
4910;DHT22;2470;49.868;8.660;2023-03-24T06:06:59;13.80;99.90
4910;DHT22;2470;49.868;8.660;2023-03-24T06:09:25;13.80;99.90
4910;DHT22;2470;49.868;8.660;2023-03-24T06:11:54;13.80;99.90
4910;DHT22;2470;49.868;8.660;2023-03-24T06:14:20;13.80;99.90
4910;DHT22;2470;49.868;8.660;2023-03-24T06:16:45;13.80;99.90
4910;DHT22;2470;49.868;8.660;2023-03-24T06:19:14;13.80;99.90
4910;DHT22;2470;49.868;8.660;2023-03-24T06:21:40;13.80;99.90
4910;DHT22;2470;49.868;8.660;2023-03-24T06:24:06;13.80;99.90
4910;DHT22;2470;49.868;8.660;2023-03-24T06:26:31;13.80;99.90
4910;DHT22;2470;49.868;8.660;2023-03-24T06:28:57;13.80;99.90
4910;DHT22;2470;49.868;8.660;2023-03-24T06:31:23;13.90;99.90
4910;DHT22;2470;49.868;8.660;2023-03-24T06:33:52;13.90;99.90
4910;DHT22;2470;49.868;8.660;2023-03-24T06:36:17;14.00;99.90
4910;DHT22;2470;49.868;8.660;2023-03-24T06:38:43;14.00;99.90
4910;DHT22;2470;49.868;8.660;2023-03-24T06:41:10;14.00;99.90
4910;DHT22;2470;49.868;8.660;2023-03-24T06:43:36;14.00;99.90
4910;DHT22;2470;49.868;8.660;2023-03-24T06:46:01;14.00;99.90
4910;DHT22;2470;49.868;8.660;2023-03-24T06:48:27;14.00;99.90
4910;DHT22;2470;49.868;8.660;2023-03-24T06:50:53;14.00;99.90
4910;DHT22;2470;49.868;8.660;2023-03-24T06:53:20;14.10;99.90
4910;DHT22;2470;49.868;8.660;2023-03-24T06:55:49;14.10;99.90
4910;DHT22;2470;49.868;8.660;2023-03-24T06:58:16;14.20;99.90
4910;DHT22;2470;49.868;8.660;2023-03-24T07:00:43;14.30;99.90
4910;DHT22;2470;49.868;8.660;2023-03-24T07:03:11;14.30;99.90
4910;DHT22;2470;49.868;8.660;2023-03-24T07:05:38;14.40;99.90
4910;DHT22;2470;49.868;8.660;2023-03-24T07:08:04;14.40;99.90
4910;DHT22;2470;49.868;8.660;2023-03-24T07:10:30;14.50;99.90
4910;DHT22;2470;49.868;8.660;2023-03-24T07:12:56;14.50;99.90
4910;DHT22;2470;49.868;8.660;2023-03-24T07:15:23;14.60;99.90
4910;DHT22;2470;49.868;8.660;2023-03-24T07:17:49;14.60;99.90
4910;DHT22;2470;49.868;8.660;2023-03-24T07:20:15;14.60;99.90
4910;DHT22;2470;49.868;8.660;2023-03-24T07:22:40;14.70;99.90
4910;DHT22;2470;49.868;8.660;2023-03-24T07:25:06;14.60;99.90
4910;DHT22;2470;49.868;8.660;2023-03-24T07:27:33;14.60;99.90
4910;DHT22;2470;49.868;8.660;2023-03-24T07:30:00;14.60;99.90
4910;DHT22;2470;49.868;8.660;2023-03-24T07:32:28;14.70;99.90
4910;DHT22;2470;49.868;8.660;2023-03-24T07:34:54;14.60;99.90
4910;DHT22;2470;49.868;8.660;2023-03-24T07:37:20;14.50;99.90
4910;DHT22;2470;49.868;8.660;2023-03-24T07:39:46;14.50;99.90
4910;DHT22;2470;49.868;8.660;2023-03-24T07:42:12;14.50;99.90
4910;DHT22;2470;49.868;8.660;2023-03-24T07:44:37;14.40;99.90
4910;DHT22;2470;49.868;8.660;2023-03-24T07:47:03;14.40;99.90
4910;DHT22;2470;49.868;8.660;2023-03-24T07:49:28;14.30;99.90
4910;DHT22;2470;49.868;8.660;2023-03-24T07:51:54;14.30;99.90
4910;DHT22;2470;49.868;8.660;2023-03-24T07:54:19;14.30;99.90
4910;DHT22;2470;49.868;8.660;2023-03-24T07:56:45;14.30;99.90
4910;DHT22;2470;49.868;8.660;2023-03-24T07:59:11;14.40;99.90
4910;DHT22;2470;49.868;8.660;2023-03-24T08:01:37;14.40;99.90
4910;DHT22;2470;49.868;8.660;2023-03-24T08:04:03;14.40;99.90
4910;DHT22;2470;49.868;8.660;2023-03-24T08:06:30;14.40;99.90
4910;DHT22;2470;49.868;8.660;2023-03-24T08:08:55;14.30;99.90
4910;DHT22;2470;49.868;8.660;2023-03-24T08:11:21;14.30;99.90
4910;DHT22;2470;49.868;8.660;2023-03-24T08:13:47;14.30;99.90
4910;DHT22;2470;49.868;8.660;2023-03-24T08:16:12;14.30;99.90
4910;DHT22;2470;49.868;8.660;2023-03-24T08:18:38;14.40;99.90
4910;DHT22;2470;49.868;8.660;2023-03-24T08:21:04;14.30;99.90
4910;DHT22;2470;49.868;8.660;2023-03-24T08:23:29;14.30;99.90
4910;DHT22;2470;49.868;8.660;2023-03-24T08:25:55;14.30;99.90
4910;DHT22;2470;49.868;8.660;2023-03-24T08:28:21;14.30;99.90
4910;DHT22;2470;49.868;8.660;2023-03-24T08:30:46;14.30;99.90
4910;DHT22;2470;49.868;8.660;2023-03-24T08:33:13;14.30;99.90
4910;DHT22;2470;49.868;8.660;2023-03-24T08:35:39;14.30;99.90
4910;DHT22;2470;49.868;8.660;2023-03-24T08:38:08;14.30;99.90
4910;DHT22;2470;49.868;8.660;2023-03-24T08:40:38;14.20;99.90
4910;DHT22;2470;49.868;8.660;2023-03-24T08:43:05;14.20;99.90
4910;DHT22;2470;49.868;8.660;2023-03-24T08:45:34;14.20;99.90
4910;DHT22;2470;49.868;8.660;2023-03-24T08:48:02;14.20;99.90
4910;DHT22;2470;49.868;8.660;2023-03-24T08:50:31;14.20;99.90
4910;DHT22;2470;49.868;8.660;2023-03-24T08:52:57;14.20;99.90
4910;DHT22;2470;49.868;8.660;2023-03-24T08:55:23;14.20;99.90
4910;DHT22;2470;49.868;8.660;2023-03-24T08:57:49;14.20;99.90
4910;DHT22;2470;49.868;8.660;2023-03-24T09:00:16;14.20;99.90
4910;DHT22;2470;49.868;8.660;2023-03-24T09:02:52;14.20;99.90
4910;DHT22;2470;49.868;8.660;2023-03-24T09:05:21;14.30;99.90
4910;DHT22;2470;49.868;8.660;2023-03-24T09:07:48;14.40;99.90
4910;DHT22;2470;49.868;8.660;2023-03-24T09:10:14;14.50;99.90
4910;DHT22;2470;49.868;8.660;2023-03-24T09:12:42;14.50;99.90
4910;DHT22;2470;49.868;8.660;2023-03-24T09:15:09;14.60;99.90
4910;DHT22;2470;49.868;8.660;2023-03-24T09:17:36;14.60;99.90
4910;DHT22;2470;49.868;8.660;2023-03-24T09:20:04;14.60;99.90
4910;DHT22;2470;49.868;8.660;2023-03-24T09:22:35;14.60;99.90
4910;DHT22;2470;49.868;8.660;2023-03-24T09:25:00;14.50;99.90
4910;DHT22;2470;49.868;8.660;2023-03-24T09:27:26;14.50;99.90
4910;DHT22;2470;49.868;8.660;2023-03-24T09:29:51;14.30;99.90
4910;DHT22;2470;49.868;8.660;2023-03-24T09:32:18;14.20;99.90
4910;DHT22;2470;49.868;8.660;2023-03-24T09:34:43;14.20;99.90
4910;DHT22;2470;49.868;8.660;2023-03-24T09:37:09;14.20;99.90
4910;DHT22;2470;49.868;8.660;2023-03-24T09:39:35;14.20;99.90
4910;DHT22;2470;49.868;8.660;2023-03-24T09:42:03;14.30;99.90
4910;DHT22;2470;49.868;8.660;2023-03-24T09:44:36;14.40;99.90
4910;DHT22;2470;49.868;8.660;2023-03-24T09:47:13;14.40;99.90
4910;DHT22;2470;49.868;8.660;2023-03-24T09:49:41;14.30;99.90
4910;DHT22;2470;49.868;8.660;2023-03-24T09:52:12;14.30;99.90
4910;DHT22;2470;49.868;8.660;2023-03-24T09:54:55;14.30;99.90
4910;DHT22;2470;49.868;8.660;2023-03-24T09:57:35;14.30;99.90
4910;DHT22;2470;49.868;8.660;2023-03-24T10:02:42;14.30;99.90
4910;DHT22;2470;49.868;8.660;2023-03-24T10:11:37;13.90;99.90
4910;DHT22;2470;49.868;8.660;2023-03-24T10:13:57;13.90;99.90
4910;DHT22;2470;49.868;8.660;2023-03-24T10:16:29;13.80;99.90
4910;DHT22;2470;49.868;8.660;2023-03-24T10:22:02;13.60;99.90
4910;DHT22;2470;49.868;8.660;2023-03-24T10:24:44;13.40;99.90
4910;DHT22;2470;49.868;8.660;2023-03-24T10:27:18;12.80;99.90
4910;DHT22;2470;49.868;8.660;2023-03-24T10:29:46;12.40;99.90
4910;DHT22;2470;49.868;8.660;2023-03-24T10:32:19;12.20;99.90
4910;DHT22;2470;49.868;8.660;2023-03-24T10:34:52;12.00;99.90
4910;DHT22;2470;49.868;8.660;2023-03-24T10:37:19;12.00;99.90
4910;DHT22;2470;49.868;8.660;2023-03-24T10:39:48;12.00;99.90
4910;DHT22;2470;49.868;8.660;2023-03-24T10:42:23;12.00;99.90
4910;DHT22;2470;49.868;8.660;2023-03-24T10:44:50;12.00;99.90
4910;DHT22;2470;49.868;8.660;2023-03-24T10:47:21;12.00;99.90
4910;DHT22;2470;49.868;8.660;2023-03-24T10:49:57;12.10;99.90
4910;DHT22;2470;49.868;8.660;2023-03-24T10:52:23;12.10;99.90
4910;DHT22;2470;49.868;8.660;2023-03-24T10:54:56;12.10;99.90
4910;DHT22;2470;49.868;8.660;2023-03-24T10:57:23;12.20;99.90
4910;DHT22;2470;49.868;8.660;2023-03-24T10:59:59;12.30;99.90
4910;DHT22;2470;49.868;8.660;2023-03-24T11:02:31;12.30;99.90
4910;DHT22;2470;49.868;8.660;2023-03-24T11:05:18;12.40;99.90
4910;DHT22;2470;49.868;8.660;2023-03-24T11:07:48;12.40;99.90
4910;DHT22;2470;49.868;8.660;2023-03-24T11:10:17;12.40;99.90
4910;DHT22;2470;49.868;8.660;2023-03-24T11:15:20;12.50;99.90
4910;DHT22;2470;49.868;8.660;2023-03-24T11:17:57;12.50;99.90
4910;DHT22;2470;49.868;8.660;2023-03-24T11:20:28;12.60;99.90
4910;DHT22;2470;49.868;8.660;2023-03-24T11:23:05;12.60;99.90
4910;DHT22;2470;49.868;8.660;2023-03-24T11:25:36;12.60;99.90
4910;DHT22;2470;49.868;8.660;2023-03-24T11:28:06;12.60;99.90
4910;DHT22;2470;49.868;8.660;2023-03-24T11:34:02;13.00;99.90
4910;DHT22;2470;49.868;8.660;2023-03-24T11:41:41;13.50;99.90
4910;DHT22;2470;49.868;8.660;2023-03-24T11:46:42;13.60;99.90
4910;DHT22;2470;49.868;8.660;2023-03-24T11:49:09;13.60;99.90
4910;DHT22;2470;49.868;8.660;2023-03-24T11:51:40;13.60;99.90
4910;DHT22;2470;49.868;8.660;2023-03-24T11:54:15;13.70;99.90
4910;DHT22;2470;49.868;8.660;2023-03-24T11:56:53;13.70;99.90
4910;DHT22;2470;49.868;8.660;2023-03-24T12:04:40;14.30;99.90
4910;DHT22;2470;49.868;8.660;2023-03-24T12:13:37;14.40;99.90
4910;DHT22;2470;49.868;8.660;2023-03-24T12:16:20;14.30;99.90
4910;DHT22;2470;49.868;8.660;2023-03-24T12:19:10;14.20;99.90
4910;DHT22;2470;49.868;8.660;2023-03-24T12:30:30;14.10;99.90
4910;DHT22;2470;49.868;8.660;2023-03-24T12:36:01;14.40;99.90
4910;DHT22;2470;49.868;8.660;2023-03-24T12:49:19;15.60;99.90
4910;DHT22;2470;49.868;8.660;2023-03-24T12:52:19;16.20;99.90
4910;DHT22;2470;49.868;8.660;2023-03-24T12:55:11;16.70;99.90
4910;DHT22;2470;49.868;8.660;2023-03-24T12:57:42;17.30;99.90
4910;DHT22;2470;49.868;8.660;2023-03-24T13:00:26;18.00;99.90
4910;DHT22;2470;49.868;8.660;2023-03-24T13:02:58;18.40;99.90
4910;DHT22;2470;49.868;8.660;2023-03-24T13:05:36;18.50;99.90
4910;DHT22;2470;49.868;8.660;2023-03-24T13:08:13;19.10;99.90
4910;DHT22;2470;49.868;8.660;2023-03-24T13:10:42;19.70;99.90
4910;DHT22;2470;49.868;8.660;2023-03-24T13:13:22;19.70;99.00
4910;DHT22;2470;49.868;8.660;2023-03-24T13:16:02;19.40;99.30
4910;DHT22;2470;49.868;8.660;2023-03-24T13:18:30;18.80;98.10
4910;DHT22;2470;49.868;8.660;2023-03-24T13:21:29;18.40;97.60
4910;DHT22;2470;49.868;8.660;2023-03-24T13:24:06;18.60;97.30
4910;DHT22;2470;49.868;8.660;2023-03-24T13:32:05;18.90;95.70
4910;DHT22;2470;49.868;8.660;2023-03-24T13:34:39;19.30;95.00
4910;DHT22;2470;49.868;8.660;2023-03-24T13:37:18;22.40;92.60
4910;DHT22;2470;49.868;8.660;2023-03-24T13:39:47;24.70;84.20
4910;DHT22;2470;49.868;8.660;2023-03-24T13:42:31;26.10;78.00
4910;DHT22;2470;49.868;8.660;2023-03-24T13:44:59;28.50;70.30
4910;DHT22;2470;49.868;8.660;2023-03-24T13:47:25;29.70;61.90
4910;DHT22;2470;49.868;8.660;2023-03-24T13:50:03;29.20;58.60
4910;DHT22;2470;49.868;8.660;2023-03-24T13:52:35;30.30;57.30
4910;DHT22;2470;49.868;8.660;2023-03-24T13:55:10;31.40;54.80
4910;DHT22;2470;49.868;8.660;2023-03-24T13:57:40;32.50;49.70
4910;DHT22;2470;49.868;8.660;2023-03-24T14:02:45;31.30;50.70
4910;DHT22;2470;49.868;8.660;2023-03-24T14:07:49;30.30;46.10
4910;DHT22;2470;49.868;8.660;2023-03-24T14:23:41;32.30;41.10
4910;DHT22;2470;49.868;8.660;2023-03-24T14:28:50;31.60;40.30
4910;DHT22;2470;49.868;8.660;2023-03-24T14:31:23;30.80;40.80
4910;DHT22;2470;49.868;8.660;2023-03-24T14:36:19;27.00;45.30
4910;DHT22;2470;49.868;8.660;2023-03-24T14:38:49;26.50;46.70
4910;DHT22;2470;49.868;8.660;2023-03-24T14:41:27;24.80;48.30
4910;DHT22;2470;49.868;8.660;2023-03-24T14:43:56;22.80;50.70
4910;DHT22;2470;49.868;8.660;2023-03-24T14:48:57;20.20;55.50
4910;DHT22;2470;49.868;8.660;2023-03-24T14:51:43;19.70;57.70
4910;DHT22;2470;49.868;8.660;2023-03-24T14:54:16;19.20;58.50
4910;DHT22;2470;49.868;8.660;2023-03-24T14:56:44;18.80;59.80
4910;DHT22;2470;49.868;8.660;2023-03-24T14:59:21;18.50;61.00
4910;DHT22;2470;49.868;8.660;2023-03-24T15:01:53;18.30;62.50
4910;DHT22;2470;49.868;8.660;2023-03-24T15:04:22;18.30;63.20
4910;DHT22;2470;49.868;8.660;2023-03-24T15:06:50;18.40;63.80
4910;DHT22;2470;49.868;8.660;2023-03-24T15:09:17;18.50;64.80
4910;DHT22;2470;49.868;8.660;2023-03-24T15:11:44;18.50;64.90
4910;DHT22;2470;49.868;8.660;2023-03-24T15:14:23;18.50;65.70
4910;DHT22;2470;49.868;8.660;2023-03-24T15:17:21;18.60;66.40
4910;DHT22;2470;49.868;8.660;2023-03-24T15:19:52;18.70;67.20
4910;DHT22;2470;49.868;8.660;2023-03-24T15:22:18;18.70;66.80
4910;DHT22;2470;49.868;8.660;2023-03-24T15:24:49;19.00;67.10
4910;DHT22;2470;49.868;8.660;2023-03-24T15:29:42;19.30;65.20
4910;DHT22;2470;49.868;8.660;2023-03-24T15:32:19;19.40;64.60
4910;DHT22;2470;49.868;8.660;2023-03-24T15:34:56;19.30;64.10
4910;DHT22;2470;49.868;8.660;2023-03-24T15:37:34;19.00;64.00
4910;DHT22;2470;49.868;8.660;2023-03-24T15:40:02;18.60;65.10
4910;DHT22;2470;49.868;8.660;2023-03-24T15:42:30;18.50;66.20
4910;DHT22;2470;49.868;8.660;2023-03-24T15:45:10;18.90;65.70
4910;DHT22;2470;49.868;8.660;2023-03-24T15:47:38;18.70;65.40
4910;DHT22;2470;49.868;8.660;2023-03-24T15:50:26;19.10;64.90
4910;DHT22;2470;49.868;8.660;2023-03-24T15:53:03;19.10;63.10
4910;DHT22;2470;49.868;8.660;2023-03-24T15:55:35;18.80;62.70
4910;DHT22;2470;49.868;8.660;2023-03-24T15:58:26;19.50;62.70
4910;DHT22;2470;49.868;8.660;2023-03-24T16:00:54;20.10;59.50
4910;DHT22;2470;49.868;8.660;2023-03-24T16:03:22;19.90;58.00
4910;DHT22;2470;49.868;8.660;2023-03-24T16:05:57;19.90;58.10
4910;DHT22;2470;49.868;8.660;2023-03-24T16:08:34;19.50;58.90
4910;DHT22;2470;49.868;8.660;2023-03-24T16:11:05;19.00;59.90
4910;DHT22;2470;49.868;8.660;2023-03-24T16:13:35;18.80;60.50
4910;DHT22;2470;49.868;8.660;2023-03-24T16:18:37;18.60;61.20
4910;DHT22;2470;49.868;8.660;2023-03-24T16:21:19;18.70;61.80
4910;DHT22;2470;49.868;8.660;2023-03-24T16:23:45;18.90;60.90
4910;DHT22;2470;49.868;8.660;2023-03-24T16:26:24;19.60;59.50
4910;DHT22;2470;49.868;8.660;2023-03-24T16:28:50;19.50;58.40
4910;DHT22;2470;49.868;8.660;2023-03-24T16:31:27;19.50;58.80
4910;DHT22;2470;49.868;8.660;2023-03-24T16:33:55;19.90;58.80
4910;DHT22;2470;49.868;8.660;2023-03-24T16:36:22;20.50;57.90
4910;DHT22;2470;49.868;8.660;2023-03-24T16:38:52;20.50;57.90
4910;DHT22;2470;49.868;8.660;2023-03-24T16:41:17;20.70;57.30
4910;DHT22;2470;49.868;8.660;2023-03-24T16:43:44;20.60;56.10
4910;DHT22;2470;49.868;8.660;2023-03-24T16:46:14;20.40;56.50
4910;DHT22;2470;49.868;8.660;2023-03-24T16:48:41;20.70;55.80
4910;DHT22;2470;49.868;8.660;2023-03-24T16:51:14;20.80;54.90
4910;DHT22;2470;49.868;8.660;2023-03-24T16:53:41;20.50;54.90
4910;DHT22;2470;49.868;8.660;2023-03-24T16:56:08;20.60;55.00
4910;DHT22;2470;49.868;8.660;2023-03-24T16:58:35;20.60;54.80
4910;DHT22;2470;49.868;8.660;2023-03-24T17:01:01;20.40;54.80
4910;DHT22;2470;49.868;8.660;2023-03-24T17:03:26;19.90;55.40
4910;DHT22;2470;49.868;8.660;2023-03-24T17:05:54;19.40;56.60
4910;DHT22;2470;49.868;8.660;2023-03-24T17:08:21;18.60;57.90
4910;DHT22;2470;49.868;8.660;2023-03-24T17:10:49;18.00;59.30
4910;DHT22;2470;49.868;8.660;2023-03-24T17:13:18;17.60;60.30
4910;DHT22;2470;49.868;8.660;2023-03-24T17:15:44;17.20;61.40
4910;DHT22;2470;49.868;8.660;2023-03-24T17:18:10;16.80;62.40
4910;DHT22;2470;49.868;8.660;2023-03-24T17:20:35;16.60;63.40
4910;DHT22;2470;49.868;8.660;2023-03-24T17:23:05;16.40;64.30
4910;DHT22;2470;49.868;8.660;2023-03-24T17:25:31;16.30;65.00
4910;DHT22;2470;49.868;8.660;2023-03-24T17:27:56;16.20;65.50
4910;DHT22;2470;49.868;8.660;2023-03-24T17:30:24;16.10;65.80
4910;DHT22;2470;49.868;8.660;2023-03-24T17:32:50;16.00;66.10
4910;DHT22;2470;49.868;8.660;2023-03-24T17:35:18;16.00;66.60
4910;DHT22;2470;49.868;8.660;2023-03-24T17:37:44;15.90;66.70
4910;DHT22;2470;49.868;8.660;2023-03-24T17:40:12;15.90;66.90
4910;DHT22;2470;49.868;8.660;2023-03-24T17:42:39;15.80;67.20
4910;DHT22;2470;49.868;8.660;2023-03-24T17:45:07;15.70;67.60
4910;DHT22;2470;49.868;8.660;2023-03-24T17:47:33;15.60;68.20
4910;DHT22;2470;49.868;8.660;2023-03-24T17:49:59;15.50;68.40
4910;DHT22;2470;49.868;8.660;2023-03-24T17:52:25;15.50;68.70
4910;DHT22;2470;49.868;8.660;2023-03-24T17:54:51;15.40;69.00
4910;DHT22;2470;49.868;8.660;2023-03-24T17:57:17;15.30;69.50
4910;DHT22;2470;49.868;8.660;2023-03-24T17:59:43;15.40;70.00
4910;DHT22;2470;49.868;8.660;2023-03-24T18:02:11;15.20;69.30
4910;DHT22;2470;49.868;8.660;2023-03-24T18:04:37;15.10;69.10
4910;DHT22;2470;49.868;8.660;2023-03-24T18:07:03;15.10;69.30
4910;DHT22;2470;49.868;8.660;2023-03-24T18:09:32;15.10;69.60
4910;DHT22;2470;49.868;8.660;2023-03-24T18:11:58;15.00;69.80
4910;DHT22;2470;49.868;8.660;2023-03-24T18:14:24;14.90;70.00
4910;DHT22;2470;49.868;8.660;2023-03-24T18:16:49;14.90;69.70
4910;DHT22;2470;49.868;8.660;2023-03-24T18:19:15;14.90;70.00
4910;DHT22;2470;49.868;8.660;2023-03-24T18:21:41;14.80;70.20
4910;DHT22;2470;49.868;8.660;2023-03-24T18:24:08;14.80;70.70
4910;DHT22;2470;49.868;8.660;2023-03-24T18:26:34;14.80;70.70
4910;DHT22;2470;49.868;8.660;2023-03-24T18:28:59;14.70;71.10
4910;DHT22;2470;49.868;8.660;2023-03-24T18:31:25;14.60;70.90